sensor_id;sensor_type;location;lat;lon;timestamp;pressure;altitude;pressure_sealevel;temperature;humidity
34961;BME280;30789;52.030;7.110;2023-04-29T00:00:24;100502.44;;;10.59;87.54
34961;BME280;30789;52.030;7.110;2023-04-29T00:02:51;100493.31;;;10.38;87.46
34961;BME280;30789;52.030;7.110;2023-04-29T00:05:19;100498.84;;;10.45;87.52
34961;BME280;30789;52.030;7.110;2023-04-29T00:07:45;100499.59;;;10.34;87.68
34961;BME280;30789;52.030;7.110;2023-04-29T00:10:11;100494.84;;;10.31;87.67
34961;BME280;30789;52.030;7.110;2023-04-29T00:12:40;100504.97;;;10.10;88.43
34961;BME280;30789;52.030;7.110;2023-04-29T00:15:07;100502.22;;;10.13;87.99
34961;BME280;30789;52.030;7.110;2023-04-29T00:17:34;100502.28;;;10.27;87.73
34961;BME280;30789;52.030;7.110;2023-04-29T00:20:00;100501.44;;;10.09;88.52
34961;BME280;30789;52.030;7.110;2023-04-29T00:22:27;100499.84;;;10.12;88.33
34961;BME280;30789;52.030;7.110;2023-04-29T00:24:54;100511.28;;;10.14;88.34
34961;BME280;30789;52.030;7.110;2023-04-29T00:27:21;100513.28;;;10.24;88.06
34961;BME280;30789;52.030;7.110;2023-04-29T00:29:49;100510.47;;;10.13;88.17
34961;BME280;30789;52.030;7.110;2023-04-29T00:32:15;100517.19;;;10.12;88.28
34961;BME280;30789;52.030;7.110;2023-04-29T00:34:41;100517.56;;;10.11;87.98
34961;BME280;30789;52.030;7.110;2023-04-29T00:37:08;100513.13;;;9.96;89.08
34961;BME280;30789;52.030;7.110;2023-04-29T00:39:34;100519.47;;;10.03;88.78
34961;BME280;30789;52.030;7.110;2023-04-29T00:42:01;100525.50;;;10.23;88.36
34961;BME280;30789;52.030;7.110;2023-04-29T00:44:28;100524.53;;;9.94;89.63
34961;BME280;30789;52.030;7.110;2023-04-29T00:46:56;100520.25;;;10.04;89.33
34961;BME280;30789;52.030;7.110;2023-04-29T00:49:23;100520.09;;;9.83;89.96
34961;BME280;30789;52.030;7.110;2023-04-29T00:51:50;100526.50;;;9.97;89.65
34961;BME280;30789;52.030;7.110;2023-04-29T00:54:17;100541.81;;;9.91;89.72
34961;BME280;30789;52.030;7.110;2023-04-29T00:56:44;100545.81;;;10.01;89.46
34961;BME280;30789;52.030;7.110;2023-04-29T00:59:11;100538.28;;;9.98;89.98
34961;BME280;30789;52.030;7.110;2023-04-29T01:01:40;100544.16;;;9.96;89.98
34961;BME280;30789;52.030;7.110;2023-04-29T01:04:08;100541.63;;;9.70;91.05
34961;BME280;30789;52.030;7.110;2023-04-29T01:06:44;100544.88;;;9.83;90.73
34961;BME280;30789;52.030;7.110;2023-04-29T01:09:25;100554.66;;;9.77;90.81
34961;BME280;30789;52.030;7.110;2023-04-29T01:12:01;100556.31;;;9.85;90.81
34961;BME280;30789;52.030;7.110;2023-04-29T01:14:32;100567.66;;;9.80;91.04
34961;BME280;30789;52.030;7.110;2023-04-29T01:17:02;100561.06;;;9.91;90.23
34961;BME280;30789;52.030;7.110;2023-04-29T01:19:38;100561.84;;;9.88;89.99
34961;BME280;30789;52.030;7.110;2023-04-29T01:22:06;100569.69;;;9.86;90.90
34961;BME280;30789;52.030;7.110;2023-04-29T01:24:33;100563.75;;;9.84;90.46
34961;BME280;30789;52.030;7.110;2023-04-29T01:27:04;100570.06;;;9.85;91.03
34961;BME280;30789;52.030;7.110;2023-04-29T01:29:40;100575.44;;;9.71;91.21
34961;BME280;30789;52.030;7.110;2023-04-29T01:32:16;100571.91;;;9.70;91.48
34961;BME280;30789;52.030;7.110;2023-04-29T01:34:48;100578.00;;;9.97;90.71
34961;BME280;30789;52.030;7.110;2023-04-29T01:37:27;100588.44;;;9.74;91.32
34961;BME280;30789;52.030;7.110;2023-04-29T01:40:06;100583.19;;;9.58;91.77
34961;BME280;30789;52.030;7.110;2023-04-29T01:42:38;100582.72;;;9.93;91.02
34961;BME280;30789;52.030;7.110;2023-04-29T01:45:07;100582.44;;;9.61;91.76
34961;BME280;30789;52.030;7.110;2023-04-29T01:47:36;100584.47;;;9.68;91.90
34961;BME280;30789;52.030;7.110;2023-04-29T01:50:05;100589.47;;;9.55;92.27
34961;BME280;30789;52.030;7.110;2023-04-29T01:52:31;100596.19;;;9.58;92.00
34961;BME280;30789;52.030;7.110;2023-04-29T01:54:58;100598.13;;;9.57;92.25
34961;BME280;30789;52.030;7.110;2023-04-29T01:57:25;100593.06;;;9.59;92.13
34961;BME280;30789;52.030;7.110;2023-04-29T01:59:52;100592.69;;;9.64;92.09
34961;BME280;30789;52.030;7.110;2023-04-29T02:02:18;100602.94;;;9.67;91.68
34961;BME280;30789;52.030;7.110;2023-04-29T02:04:47;100600.22;;;9.71;92.24
34961;BME280;30789;52.030;7.110;2023-04-29T02:07:14;100605.03;;;9.81;91.68
34961;BME280;30789;52.030;7.110;2023-04-29T02:09:41;100613.50;;;9.62;91.79
34961;BME280;30789;52.030;7.110;2023-04-29T02:12:07;100608.84;;;9.69;92.17
34961;BME280;30789;52.030;7.110;2023-04-29T02:14:35;100605.25;;;9.62;92.00
34961;BME280;30789;52.030;7.110;2023-04-29T02:17:02;100606.94;;;9.77;91.55
34961;BME280;30789;52.030;7.110;2023-04-29T02:19:28;100610.25;;;9.93;90.79
34961;BME280;30789;52.030;7.110;2023-04-29T02:21:55;100618.72;;;9.74;90.97
34961;BME280;30789;52.030;7.110;2023-04-29T02:24:21;100617.91;;;9.70;91.17
34961;BME280;30789;52.030;7.110;2023-04-29T02:26:47;100617.44;;;9.64;91.16
34961;BME280;30789;52.030;7.110;2023-04-29T02:29:14;100621.94;;;9.79;91.52
34961;BME280;30789;52.030;7.110;2023-04-29T02:31:42;100623.47;;;9.77;90.19
34961;BME280;30789;52.030;7.110;2023-04-29T02:34:09;100621.94;;;9.83;90.64
34961;BME280;30789;52.030;7.110;2023-04-29T02:36:35;100624.59;;;9.72;90.95
34961;BME280;30789;52.030;7.110;2023-04-29T02:39:02;100619.94;;;9.76;90.27
34961;BME280;30789;52.030;7.110;2023-04-29T02:41:28;100625.78;;;9.71;90.70
34961;BME280;30789;52.030;7.110;2023-04-29T02:43:55;100635.19;;;9.67;90.92
34961;BME280;30789;52.030;7.110;2023-04-29T02:46:22;100626.94;;;9.67;90.09
34961;BME280;30789;52.030;7.110;2023-04-29T02:48:50;100638.28;;;9.62;90.43
34961;BME280;30789;52.030;7.110;2023-04-29T02:51:16;100638.31;;;9.69;90.63
34961;BME280;30789;52.030;7.110;2023-04-29T02:53:42;100645.03;;;9.71;90.80
34961;BME280;30789;52.030;7.110;2023-04-29T02:56:09;100649.84;;;9.81;90.34
34961;BME280;30789;52.030;7.110;2023-04-29T02:58:35;100653.59;;;9.59;90.48
34961;BME280;30789;52.030;7.110;2023-04-29T03:01:02;100652.41;;;9.60;90.59
34961;BME280;30789;52.030;7.110;2023-04-29T03:03:28;100655.84;;;9.50;91.22
34961;BME280;30789;52.030;7.110;2023-04-29T03:05:56;100647.13;;;9.85;90.53
34961;BME280;30789;52.030;7.110;2023-04-29T03:08:23;100653.69;;;9.70;89.76
34961;BME280;30789;52.030;7.110;2023-04-29T03:10:49;100657.31;;;9.81;89.60
34961;BME280;30789;52.030;7.110;2023-04-29T03:13:15;100648.94;;;9.70;89.80
34961;BME280;30789;52.030;7.110;2023-04-29T03:15:42;100658.34;;;9.66;90.26
34961;BME280;30789;52.030;7.110;2023-04-29T03:18:09;100667.72;;;9.61;90.08
34961;BME280;30789;52.030;7.110;2023-04-29T03:20:35;100668.19;;;9.67;89.78
34961;BME280;30789;52.030;7.110;2023-04-29T03:23:03;100669.25;;;9.55;89.84
34961;BME280;30789;52.030;7.110;2023-04-29T03:25:30;100672.47;;;9.61;89.86
34961;BME280;30789;52.030;7.110;2023-04-29T03:27:56;100676.84;;;9.65;89.89
34961;BME280;30789;52.030;7.110;2023-04-29T03:30:22;100676.03;;;9.65;89.16
34961;BME280;30789;52.030;7.110;2023-04-29T03:32:49;100673.22;;;9.58;89.41
34961;BME280;30789;52.030;7.110;2023-04-29T03:35:15;100684.25;;;9.61;89.53
34961;BME280;30789;52.030;7.110;2023-04-29T03:37:42;100685.78;;;9.59;89.76
34961;BME280;30789;52.030;7.110;2023-04-29T03:40:12;100686.28;;;9.68;89.24
34961;BME280;30789;52.030;7.110;2023-04-29T03:42:38;100693.47;;;9.79;88.88
34961;BME280;30789;52.030;7.110;2023-04-29T03:45:06;100676.34;;;9.56;89.45
34961;BME280;30789;52.030;7.110;2023-04-29T03:47:33;100680.63;;;9.50;89.39
34961;BME280;30789;52.030;7.110;2023-04-29T03:50:00;100685.84;;;9.62;89.14
34961;BME280;30789;52.030;7.110;2023-04-29T03:52:26;100689.69;;;9.54;89.09
34961;BME280;30789;52.030;7.110;2023-04-29T03:54:53;100694.69;;;9.45;89.69
34961;BME280;30789;52.030;7.110;2023-04-29T03:57:21;100697.25;;;9.64;89.27
34961;BME280;30789;52.030;7.110;2023-04-29T03:59:47;100699.44;;;9.48;89.38
34961;BME280;30789;52.030;7.110;2023-04-29T04:02:15;100701.59;;;9.69;88.45
34961;BME280;30789;52.030;7.110;2023-04-29T04:04:41;100710.59;;;9.62;88.51
34961;BME280;30789;52.030;7.110;2023-04-29T04:07:08;100701.81;;;9.50;88.82
34961;BME280;30789;52.030;7.110;2023-04-29T04:09:35;100706.91;;;9.48;89.07
34961;BME280;30789;52.030;7.110;2023-04-29T04:12:02;100717.63;;;9.60;88.43
34961;BME280;30789;52.030;7.110;2023-04-29T04:14:30;100714.00;;;9.49;88.69
34961;BME280;30789;52.030;7.110;2023-04-29T04:16:57;100713.19;;;9.48;88.30
34961;BME280;30789;52.030;7.110;2023-04-29T04:19:23;100721.72;;;9.40;88.55
34961;BME280;30789;52.030;7.110;2023-04-29T04:21:51;100730.34;;;9.38;88.72
34961;BME280;30789;52.030;7.110;2023-04-29T04:24:17;100724.16;;;9.45;88.29
34961;BME280;30789;52.030;7.110;2023-04-29T04:26:44;100735.22;;;9.48;88.89
34961;BME280;30789;52.030;7.110;2023-04-29T04:29:10;100730.84;;;9.44;88.57
34961;BME280;30789;52.030;7.110;2023-04-29T04:31:38;100740.59;;;9.38;88.47
34961;BME280;30789;52.030;7.110;2023-04-29T04:34:05;100740.03;;;9.25;89.04
34961;BME280;30789;52.030;7.110;2023-04-29T04:36:31;100750.84;;;9.44;88.83
34961;BME280;30789;52.030;7.110;2023-04-29T04:38:57;100749.47;;;9.24;88.69
34961;BME280;30789;52.030;7.110;2023-04-29T04:41:24;100747.34;;;9.14;89.40
34961;BME280;30789;52.030;7.110;2023-04-29T04:43:50;100755.84;;;9.32;88.70
34961;BME280;30789;52.030;7.110;2023-04-29T04:46:17;100755.78;;;9.28;89.06
34961;BME280;30789;52.030;7.110;2023-04-29T04:48:45;100762.28;;;9.13;89.44
34961;BME280;30789;52.030;7.110;2023-04-29T04:51:12;100765.72;;;9.36;89.08
34961;BME280;30789;52.030;7.110;2023-04-29T04:53:40;100763.22;;;9.28;89.18
34961;BME280;30789;52.030;7.110;2023-04-29T04:56:07;100781.16;;;9.48;88.00
34961;BME280;30789;52.030;7.110;2023-04-29T04:58:33;100768.66;;;9.21;88.93
34961;BME280;30789;52.030;7.110;2023-04-29T05:01:00;100776.84;;;9.17;89.14
34961;BME280;30789;52.030;7.110;2023-04-29T05:03:27;100785.59;;;9.26;89.12
34961;BME280;30789;52.030;7.110;2023-04-29T05:05:55;100786.03;;;9.28;89.21
34961;BME280;30789;52.030;7.110;2023-04-29T05:08:21;100782.25;;;9.10;89.62
34961;BME280;30789;52.030;7.110;2023-04-29T05:10:48;100794.72;;;9.30;88.93
34961;BME280;30789;52.030;7.110;2023-04-29T05:13:14;100791.41;;;9.47;88.44
34961;BME280;30789;52.030;7.110;2023-04-29T05:15:41;100800.28;;;9.37;88.26
34961;BME280;30789;52.030;7.110;2023-04-29T05:18:08;100793.78;;;9.19;89.16
34961;BME280;30789;52.030;7.110;2023-04-29T05:20:35;100797.22;;;9.13;89.31
34961;BME280;30789;52.030;7.110;2023-04-29T05:23:03;100796.56;;;9.23;89.10
34961;BME280;30789;52.030;7.110;2023-04-29T05:25:29;100801.16;;;9.15;89.54
34961;BME280;30789;52.030;7.110;2023-04-29T05:27:56;100797.59;;;9.11;90.01
34961;BME280;30789;52.030;7.110;2023-04-29T05:30:22;100807.66;;;9.30;89.49
34961;BME280;30789;52.030;7.110;2023-04-29T05:32:49;100804.81;;;9.23;89.42
34961;BME280;30789;52.030;7.110;2023-04-29T05:35:16;100815.63;;;9.38;89.02
34961;BME280;30789;52.030;7.110;2023-04-29T05:37:42;100811.16;;;9.27;89.13
34961;BME280;30789;52.030;7.110;2023-04-29T05:40:11;100813.47;;;9.25;89.45
34961;BME280;30789;52.030;7.110;2023-04-29T05:42:37;100824.81;;;9.20;89.52
34961;BME280;30789;52.030;7.110;2023-04-29T05:45:04;100824.84;;;9.23;89.59
34961;BME280;30789;52.030;7.110;2023-04-29T05:47:31;100833.63;;;9.32;89.13
34961;BME280;30789;52.030;7.110;2023-04-29T05:49:58;100829.09;;;9.17;89.57
34961;BME280;30789;52.030;7.110;2023-04-29T05:52:25;100843.25;;;9.45;88.99
34961;BME280;30789;52.030;7.110;2023-04-29T05:54:51;100846.16;;;9.30;88.66
34961;BME280;30789;52.030;7.110;2023-04-29T05:57:19;100846.25;;;9.37;89.11
34961;BME280;30789;52.030;7.110;2023-04-29T05:59:45;100850.59;;;9.38;88.48
34961;BME280;30789;52.030;7.110;2023-04-29T06:02:12;100849.88;;;9.44;88.22
34961;BME280;30789;52.030;7.110;2023-04-29T06:04:38;100852.13;;;9.35;88.51
34961;BME280;30789;52.030;7.110;2023-04-29T06:07:06;100855.34;;;9.41;88.62
34961;BME280;30789;52.030;7.110;2023-04-29T06:09:33;100867.19;;;9.45;87.83
34961;BME280;30789;52.030;7.110;2023-04-29T06:12:00;100862.91;;;9.47;88.31
34961;BME280;30789;52.030;7.110;2023-04-29T06:14:28;100881.22;;;9.66;87.78
34961;BME280;30789;52.030;7.110;2023-04-29T06:16:55;100871.44;;;9.39;87.79
34961;BME280;30789;52.030;7.110;2023-04-29T06:19:21;100872.97;;;9.36;88.29
34961;BME280;30789;52.030;7.110;2023-04-29T06:21:49;100883.84;;;9.26;88.11
34961;BME280;30789;52.030;7.110;2023-04-29T06:24:16;100887.50;;;9.37;88.61
34961;BME280;30789;52.030;7.110;2023-04-29T06:26:42;100886.50;;;9.48;88.26
34961;BME280;30789;52.030;7.110;2023-04-29T06:29:09;100892.25;;;9.40;87.53
34961;BME280;30789;52.030;7.110;2023-04-29T06:31:37;100896.03;;;9.28;88.01
34961;BME280;30789;52.030;7.110;2023-04-29T06:34:04;100901.75;;;9.42;87.61
34961;BME280;30789;52.030;7.110;2023-04-29T06:36:30;100897.59;;;9.55;87.21
34961;BME280;30789;52.030;7.110;2023-04-29T06:38:57;100899.59;;;9.58;86.30
34961;BME280;30789;52.030;7.110;2023-04-29T06:41:23;100900.91;;;9.68;85.68
34961;BME280;30789;52.030;7.110;2023-04-29T06:43:51;100905.03;;;9.51;86.25
34961;BME280;30789;52.030;7.110;2023-04-29T06:46:17;100914.09;;;9.55;86.34
34961;BME280;30789;52.030;7.110;2023-04-29T06:48:45;100910.22;;;9.56;86.69
34961;BME280;30789;52.030;7.110;2023-04-29T06:51:12;100921.47;;;9.48;86.61
34961;BME280;30789;52.030;7.110;2023-04-29T06:53:38;100922.50;;;9.36;86.65
34961;BME280;30789;52.030;7.110;2023-04-29T06:56:06;100926.63;;;9.79;85.82
34961;BME280;30789;52.030;7.110;2023-04-29T06:58:33;100937.19;;;9.47;85.87
34961;BME280;30789;52.030;7.110;2023-04-29T07:00:59;100947.47;;;9.50;86.72
34961;BME280;30789;52.030;7.110;2023-04-29T07:03:27;100945.75;;;9.68;85.94
34961;BME280;30789;52.030;7.110;2023-04-29T07:05:55;100939.81;;;9.40;86.35
34961;BME280;30789;52.030;7.110;2023-04-29T07:08:21;100957.44;;;9.62;86.34
34961;BME280;30789;52.030;7.110;2023-04-29T07:10:53;100957.06;;;9.63;85.76
34961;BME280;30789;52.030;7.110;2023-04-29T07:13:20;100961.56;;;9.75;85.06
34961;BME280;30789;52.030;7.110;2023-04-29T07:15:46;100959.88;;;9.67;84.99
34961;BME280;30789;52.030;7.110;2023-04-29T07:18:12;100960.50;;;9.57;85.23
34961;BME280;30789;52.030;7.110;2023-04-29T07:20:39;100973.72;;;9.74;84.77
34961;BME280;30789;52.030;7.110;2023-04-29T07:23:07;100973.00;;;9.77;84.81
34961;BME280;30789;52.030;7.110;2023-04-29T07:25:34;100970.22;;;9.73;84.27
34961;BME280;30789;52.030;7.110;2023-04-29T07:28:01;100971.69;;;9.97;84.09
34961;BME280;30789;52.030;7.110;2023-04-29T07:30:27;100975.31;;;10.01;83.53
34961;BME280;30789;52.030;7.110;2023-04-29T07:32:54;100981.25;;;10.06;82.98
34961;BME280;30789;52.030;7.110;2023-04-29T07:35:20;100976.06;;;10.01;83.78
34961;BME280;30789;52.030;7.110;2023-04-29T07:37:47;100982.41;;;10.31;83.17
34961;BME280;30789;52.030;7.110;2023-04-29T07:40:14;100991.19;;;10.11;82.40
34961;BME280;30789;52.030;7.110;2023-04-29T07:42:41;100989.50;;;10.32;82.52
34961;BME280;30789;52.030;7.110;2023-04-29T07:45:09;100997.63;;;10.55;81.72
34961;BME280;30789;52.030;7.110;2023-04-29T07:47:35;101002.06;;;10.30;81.23
34961;BME280;30789;52.030;7.110;2023-04-29T07:50:02;101007.97;;;10.32;81.75
34961;BME280;30789;52.030;7.110;2023-04-29T07:52:29;101011.47;;;10.59;81.41
34961;BME280;30789;52.030;7.110;2023-04-29T07:54:56;101013.19;;;10.74;80.86
34961;BME280;30789;52.030;7.110;2023-04-29T07:57:24;101022.28;;;10.78;80.77
34961;BME280;30789;52.030;7.110;2023-04-29T07:59:51;101029.69;;;10.70;79.38
34961;BME280;30789;52.030;7.110;2023-04-29T08:02:18;101029.44;;;10.82;80.23
34961;BME280;30789;52.030;7.110;2023-04-29T08:04:44;101032.22;;;10.82;79.84
34961;BME280;30789;52.030;7.110;2023-04-29T08:07:11;101041.31;;;10.86;79.66
34961;BME280;30789;52.030;7.110;2023-04-29T08:09:38;101044.06;;;10.86;79.29
34961;BME280;30789;52.030;7.110;2023-04-29T08:12:05;101045.78;;;11.01;78.97
34961;BME280;30789;52.030;7.110;2023-04-29T08:14:33;101046.13;;;11.36;77.39
34961;BME280;30789;52.030;7.110;2023-04-29T08:16:59;101053.88;;;11.20;78.71
34961;BME280;30789;52.030;7.110;2023-04-29T08:19:26;101061.69;;;11.15;78.38
34961;BME280;30789;52.030;7.110;2023-04-29T08:21:52;101064.38;;;11.08;77.75
34961;BME280;30789;52.030;7.110;2023-04-29T08:24:18;101065.13;;;11.45;77.10
34961;BME280;30789;52.030;7.110;2023-04-29T08:26:46;101064.81;;;11.13;77.78
34961;BME280;30789;52.030;7.110;2023-04-29T08:29:12;101068.34;;;11.10;78.28
34961;BME280;30789;52.030;7.110;2023-04-29T08:31:41;101067.56;;;11.10;77.65
34961;BME280;30789;52.030;7.110;2023-04-29T08:34:08;101069.63;;;11.20;77.77
34961;BME280;30789;52.030;7.110;2023-04-29T08:36:34;101069.06;;;11.04;77.46
34961;BME280;30789;52.030;7.110;2023-04-29T08:39:02;101074.56;;;11.44;77.38
34961;BME280;30789;52.030;7.110;2023-04-29T08:41:30;101071.28;;;11.28;77.33
34961;BME280;30789;52.030;7.110;2023-04-29T08:43:58;101075.41;;;11.48;76.74
34961;BME280;30789;52.030;7.110;2023-04-29T08:46:24;101079.16;;;11.66;75.70
34961;BME280;30789;52.030;7.110;2023-04-29T08:48:53;101076.59;;;11.50;75.48
34961;BME280;30789;52.030;7.110;2023-04-29T08:51:21;101081.56;;;11.74;75.40
34961;BME280;30789;52.030;7.110;2023-04-29T08:53:48;101083.31;;;11.53;75.47
34961;BME280;30789;52.030;7.110;2023-04-29T08:56:16;101089.28;;;11.55;75.27
34961;BME280;30789;52.030;7.110;2023-04-29T08:58:44;101087.44;;;11.66;74.93
34961;BME280;30789;52.030;7.110;2023-04-29T09:01:12;101085.38;;;11.59;74.83
34961;BME280;30789;52.030;7.110;2023-04-29T09:03:43;101100.69;;;11.53;75.64
34961;BME280;30789;52.030;7.110;2023-04-29T09:06:14;101100.88;;;11.31;75.76
34961;BME280;30789;52.030;7.110;2023-04-29T09:08:40;101097.78;;;11.79;75.24
34961;BME280;30789;52.030;7.110;2023-04-29T09:11:08;101100.47;;;12.23;74.18
34961;BME280;30789;52.030;7.110;2023-04-29T09:13:36;101105.13;;;12.12;73.64
34961;BME280;30789;52.030;7.110;2023-04-29T09:16:02;101110.13;;;12.57;71.50
34961;BME280;30789;52.030;7.110;2023-04-29T09:18:44;101108.06;;;12.37;73.16
34961;BME280;30789;52.030;7.110;2023-04-29T09:21:16;101110.19;;;11.99;72.37
34961;BME280;30789;52.030;7.110;2023-04-29T09:23:44;101109.88;;;12.12;72.13
34961;BME280;30789;52.030;7.110;2023-04-29T09:26:12;101111.47;;;12.84;70.91
34961;BME280;30789;52.030;7.110;2023-04-29T09:28:38;101123.28;;;12.13;71.27
34961;BME280;30789;52.030;7.110;2023-04-29T09:31:07;101125.63;;;12.11;72.18
34961;BME280;30789;52.030;7.110;2023-04-29T09:33:51;101131.81;;;12.48;71.72
34961;BME280;30789;52.030;7.110;2023-04-29T09:36:40;101132.91;;;12.33;71.64
34961;BME280;30789;52.030;7.110;2023-04-29T09:39:07;101138.78;;;12.25;72.14
34961;BME280;30789;52.030;7.110;2023-04-29T09:41:41;101138.50;;;12.44;71.71
34961;BME280;30789;52.030;7.110;2023-04-29T09:44:09;101139.50;;;12.83;70.77
34961;BME280;30789;52.030;7.110;2023-04-29T09:46:36;101144.03;;;13.33;69.90
34961;BME280;30789;52.030;7.110;2023-04-29T09:49:03;101150.72;;;13.21;69.32
34961;BME280;30789;52.030;7.110;2023-04-29T09:51:30;101143.72;;;13.69;68.16
34961;BME280;30789;52.030;7.110;2023-04-29T09:53:59;101140.13;;;14.46;65.70
34961;BME280;30789;52.030;7.110;2023-04-29T09:56:27;101140.97;;;14.08;65.36
34961;BME280;30789;52.030;7.110;2023-04-29T09:58:55;101146.09;;;13.78;67.24
34961;BME280;30789;52.030;7.110;2023-04-29T10:01:22;101152.41;;;14.52;65.39
34961;BME280;30789;52.030;7.110;2023-04-29T10:03:51;101137.00;;;14.16;65.06
34961;BME280;30789;52.030;7.110;2023-04-29T10:06:20;101144.91;;;15.39;62.71
34961;BME280;30789;52.030;7.110;2023-04-29T10:08:48;101146.91;;;15.35;63.93
34961;BME280;30789;52.030;7.110;2023-04-29T10:11:16;101140.16;;;15.47;59.93
34961;BME280;30789;52.030;7.110;2023-04-29T10:13:43;101146.94;;;15.38;62.06
34961;BME280;30789;52.030;7.110;2023-04-29T10:16:16;101146.47;;;16.42;58.71
34961;BME280;30789;52.030;7.110;2023-04-29T10:18:48;101146.16;;;16.74;58.39
34961;BME280;30789;52.030;7.110;2023-04-29T10:21:18;101151.97;;;16.86;58.32
34961;BME280;30789;52.030;7.110;2023-04-29T10:23:47;101149.88;;;16.64;59.81
34961;BME280;30789;52.030;7.110;2023-04-29T10:26:15;101149.75;;;16.34;58.38
34961;BME280;30789;52.030;7.110;2023-04-29T10:28:45;101158.97;;;17.62;56.49
34961;BME280;30789;52.030;7.110;2023-04-29T10:31:15;101152.44;;;17.45;56.02
34961;BME280;30789;52.030;7.110;2023-04-29T10:33:44;101149.25;;;16.42;56.82
34961;BME280;30789;52.030;7.110;2023-04-29T10:36:12;101144.25;;;15.83;59.40
34961;BME280;30789;52.030;7.110;2023-04-29T10:38:41;101155.44;;;16.64;59.52
34961;BME280;30789;52.030;7.110;2023-04-29T10:41:16;101155.44;;;18.07;55.75
34961;BME280;30789;52.030;7.110;2023-04-29T10:43:44;101150.03;;;18.20;52.89
34961;BME280;30789;52.030;7.110;2023-04-29T10:46:21;101152.13;;;18.16;53.40
34961;BME280;30789;52.030;7.110;2023-04-29T10:48:49;101158.59;;;18.09;51.83
34961;BME280;30789;52.030;7.110;2023-04-29T10:51:40;101157.38;;;18.33;52.51
34961;BME280;30789;52.030;7.110;2023-04-29T10:54:08;101157.38;;;19.54;48.82
34961;BME280;30789;52.030;7.110;2023-04-29T10:56:41;101154.69;;;18.92;48.86
34961;BME280;30789;52.030;7.110;2023-04-29T10:59:09;101157.66;;;17.70;53.70
34961;BME280;30789;52.030;7.110;2023-04-29T11:01:42;101152.09;;;16.76;54.70
34961;BME280;30789;52.030;7.110;2023-04-29T11:04:09;101160.66;;;16.58;55.47
34961;BME280;30789;52.030;7.110;2023-04-29T11:06:41;101154.13;;;16.31;55.55
34961;BME280;30789;52.030;7.110;2023-04-29T11:09:11;101159.63;;;17.13;55.20
34961;BME280;30789;52.030;7.110;2023-04-29T11:14:32;101154.91;;;16.35;55.22
34961;BME280;30789;52.030;7.110;2023-04-29T11:17:01;101152.63;;;16.67;55.01
34961;BME280;30789;52.030;7.110;2023-04-29T11:19:32;101163.09;;;16.53;54.95
34961;BME280;30789;52.030;7.110;2023-04-29T11:22:11;101154.44;;;16.40;56.12
34961;BME280;30789;52.030;7.110;2023-04-29T11:24:48;101160.22;;;16.16;55.92
34961;BME280;30789;52.030;7.110;2023-04-29T11:27:17;101160.00;;;15.38;57.43
34961;BME280;30789;52.030;7.110;2023-04-29T11:29:44;101157.69;;;15.22;58.27
34961;BME280;30789;52.030;7.110;2023-04-29T11:32:12;101160.28;;;14.68;59.31
34961;BME280;30789;52.030;7.110;2023-04-29T11:34:38;101167.31;;;15.00;58.29
34961;BME280;30789;52.030;7.110;2023-04-29T11:37:05;101170.09;;;15.00;57.22
34961;BME280;30789;52.030;7.110;2023-04-29T11:39:32;101166.56;;;14.86;57.67
34961;BME280;30789;52.030;7.110;2023-04-29T11:42:03;101176.50;;;14.83;56.61
34961;BME280;30789;52.030;7.110;2023-04-29T11:44:32;101177.47;;;15.35;57.30
34961;BME280;30789;52.030;7.110;2023-04-29T11:47:01;101180.25;;;15.38;58.70
34961;BME280;30789;52.030;7.110;2023-04-29T11:49:29;101182.22;;;15.45;57.59
34961;BME280;30789;52.030;7.110;2023-04-29T11:51:55;101173.91;;;15.42;55.62
34961;BME280;30789;52.030;7.110;2023-04-29T11:54:24;101186.25;;;15.95;56.65
34961;BME280;30789;52.030;7.110;2023-04-29T11:56:52;101184.63;;;16.86;55.24
34961;BME280;30789;52.030;7.110;2023-04-29T11:59:18;101181.47;;;17.14;53.35
34961;BME280;30789;52.030;7.110;2023-04-29T12:01:46;101188.47;;;17.59;48.45
34961;BME280;30789;52.030;7.110;2023-04-29T12:04:13;101187.09;;;17.71;50.25
34961;BME280;30789;52.030;7.110;2023-04-29T12:06:40;101183.75;;;18.06;49.36
34961;BME280;30789;52.030;7.110;2023-04-29T12:09:07;101172.72;;;19.46;47.64
34961;BME280;30789;52.030;7.110;2023-04-29T12:11:33;101177.50;;;19.97;45.39
34961;BME280;30789;52.030;7.110;2023-04-29T12:14:00;101184.06;;;19.00;47.68
34961;BME280;30789;52.030;7.110;2023-04-29T12:16:30;101178.78;;;18.17;48.31
34961;BME280;30789;52.030;7.110;2023-04-29T12:18:58;101175.75;;;18.08;49.42
34961;BME280;30789;52.030;7.110;2023-04-29T12:21:25;101175.84;;;17.21;47.96
34961;BME280;30789;52.030;7.110;2023-04-29T12:23:52;101175.03;;;16.90;49.93
34961;BME280;30789;52.030;7.110;2023-04-29T12:26:19;101182.88;;;17.29;50.43
34961;BME280;30789;52.030;7.110;2023-04-29T12:28:47;101183.50;;;16.80;49.89
34961;BME280;30789;52.030;7.110;2023-04-29T12:31:14;101185.03;;;16.44;49.75
34961;BME280;30789;52.030;7.110;2023-04-29T12:33:41;101180.31;;;16.78;51.45
34961;BME280;30789;52.030;7.110;2023-04-29T12:36:16;101184.50;;;16.96;50.62
34961;BME280;30789;52.030;7.110;2023-04-29T12:38:44;101186.53;;;16.08;49.89
34961;BME280;30789;52.030;7.110;2023-04-29T12:41:11;101180.19;;;16.07;51.77
34961;BME280;30789;52.030;7.110;2023-04-29T12:43:38;101181.44;;;15.99;51.43
34961;BME280;30789;52.030;7.110;2023-04-29T12:46:06;101180.72;;;15.88;52.17
34961;BME280;30789;52.030;7.110;2023-04-29T12:48:33;101180.59;;;15.51;52.45
34961;BME280;30789;52.030;7.110;2023-04-29T12:51:01;101187.97;;;15.79;52.14
34961;BME280;30789;52.030;7.110;2023-04-29T12:53:29;101183.00;;;16.48;51.04
34961;BME280;30789;52.030;7.110;2023-04-29T12:55:56;101181.88;;;17.99;49.33
34961;BME280;30789;52.030;7.110;2023-04-29T12:58:23;101179.38;;;18.54;46.11
34961;BME280;30789;52.030;7.110;2023-04-29T13:00:49;101182.19;;;20.20;45.83